createdAt,value
2022-10-05T00:01:52.588Z,100.00
2022-10-05T00:04:24.494Z,100.00
2022-10-05T00:06:58.080Z,100.00
2022-10-05T00:09:24.891Z,100.00
2022-10-05T00:11:51.902Z,100.00
2022-10-05T00:14:22.214Z,100.00
2022-10-05T00:16:49.988Z,100.00
2022-10-05T00:19:34.172Z,100.00
2022-10-05T00:22:15.417Z,100.00
2022-10-05T00:24:42.642Z,100.00
2022-10-05T00:27:21.010Z,100.00
2022-10-05T00:29:50.019Z,100.00
2022-10-05T00:32:17.681Z,100.00
2022-10-05T00:34:45.733Z,100.00
2022-10-05T00:37:13.992Z,100.00
2022-10-05T00:39:42.205Z,100.00
2022-10-05T00:42:18.026Z,100.00
2022-10-05T00:44:59.166Z,100.00
2022-10-05T00:47:53.468Z,100.00
2022-10-05T00:50:28.367Z,100.00
2022-10-05T00:53:22.482Z,100.00
2022-10-05T00:56:11.934Z,100.00
2022-10-05T00:59:17.587Z,100.00
2022-10-05T01:01:57.822Z,100.00
2022-10-05T01:04:30.236Z,100.00
2022-10-05T01:07:18.658Z,100.00
2022-10-05T01:10:10.543Z,100.00
2022-10-05T01:12:43.622Z,100.00
2022-10-05T01:15:16.080Z,100.00
2022-10-05T01:18:18.699Z,100.00
2022-10-05T01:21:19.555Z,100.00
2022-10-05T01:24:02.302Z,100.00
2022-10-05T01:26:50.025Z,100.00
2022-10-05T01:29:24.341Z,100.00
2022-10-05T01:32:03.961Z,100.00
2022-10-05T01:35:02.959Z,100.00
2022-10-05T01:37:38.473Z,100.00
2022-10-05T01:40:47.796Z,100.00
2022-10-05T01:43:40.845Z,100.00
2022-10-05T01:46:07.809Z,100.00
2022-10-05T01:48:43.705Z,100.00
2022-10-05T01:51:37.933Z,100.00
2022-10-05T01:54:47.539Z,100.00
2022-10-05T01:57:44.099Z,100.00
2022-10-05T02:00:14.453Z,100.00
2022-10-05T02:02:52.596Z,100.00
2022-10-05T02:05:38.306Z,100.00
2022-10-05T02:08:18.607Z,100.00
2022-10-05T02:11:07.487Z,100.00
2022-10-05T02:13:44.750Z,100.00
2022-10-05T02:16:20.778Z,100.00
2022-10-05T02:18:54.917Z,100.00
2022-10-05T02:21:21.950Z,100.00
2022-10-05T02:23:53.491Z,100.00
2022-10-05T02:26:22.073Z,100.00
2022-10-05T02:29:00.037Z,100.00
2022-10-05T02:31:38.046Z,100.00
2022-10-05T02:34:28.342Z,100.00
2022-10-05T02:37:27.621Z,100.00
2022-10-05T02:40:40.137Z,100.00
2022-10-05T02:43:26.191Z,100.00
2022-10-05T02:46:05.768Z,100.00
2022-10-05T02:48:50.865Z,100.00
2022-10-05T02:51:34.880Z,100.00
2022-10-05T02:54:16.992Z,100.00
2022-10-05T02:57:08.069Z,100.00
2022-10-05T02:59:40.578Z,100.00
2022-10-05T03:02:29.559Z,100.00
2022-10-05T03:05:41.894Z,100.00
2022-10-05T03:08:28.540Z,100.00
2022-10-05T03:11:10.300Z,100.00
2022-10-05T03:13:42.753Z,100.00
2022-10-05T03:16:29.518Z,100.00
2022-10-05T03:19:10.282Z,100.00
2022-10-05T03:22:01.760Z,100.00
2022-10-05T03:24:41.084Z,100.00
2022-10-05T03:27:19.958Z,100.00
2022-10-05T03:30:16.582Z,100.00
2022-10-05T03:32:49.480Z,100.00
2022-10-05T03:35:28.358Z,100.00
2022-10-05T03:38:10.205Z,100.00
2022-10-05T03:41:01.532Z,100.00
2022-10-05T03:43:54.672Z,100.00
2022-10-05T03:46:45.541Z,100.00
2022-10-05T03:49:46.840Z,100.00
2022-10-05T03:52:23.208Z,100.00
2022-10-05T03:55:01.423Z,100.00
2022-10-05T03:57:33.289Z,100.00
2022-10-05T04:00:17.481Z,100.00
2022-10-05T04:02:51.151Z,100.00
2022-10-05T04:05:25.064Z,100.00
2022-10-05T04:08:00.187Z,100.00
2022-10-05T04:10:59.791Z,100.00
2022-10-05T04:13:44.378Z,100.00
2022-10-05T04:16:11.363Z,100.00
2022-10-05T04:18:46.101Z,100.00
2022-10-05T04:21:31.403Z,100.00
2022-10-05T04:24:34.246Z,100.00
2022-10-05T04:27:11.032Z,100.00
2022-10-05T04:29:58.336Z,100.00
2022-10-05T04:32:35.434Z,100.00
2022-10-05T04:35:05.136Z,100.00
2022-10-05T04:38:11.548Z,100.00
2022-10-05T04:40:41.205Z,100.00
2022-10-05T04:43:34.714Z,100.00
2022-10-05T04:46:13.608Z,100.00
2022-10-05T04:48:55.753Z,100.00
2022-10-05T04:51:47.682Z,100.00
2022-10-05T04:54:37.263Z,100.00
2022-10-05T04:57:11.048Z,100.00
2022-10-05T04:59:53.120Z,100.00
2022-10-05T05:02:44.778Z,100.00
2022-10-05T05:05:14.744Z,100.00
2022-10-05T05:07:59.681Z,100.00
2022-10-05T05:10:49.958Z,100.00
2022-10-05T05:13:47.742Z,100.00
2022-10-05T05:16:44.678Z,100.00
2022-10-05T05:19:23.814Z,100.00
2022-10-05T05:22:22.163Z,100.00
2022-10-05T05:25:17.228Z,100.00
2022-10-05T05:27:54.869Z,100.00
2022-10-05T05:30:43.863Z,100.00
2022-10-05T05:33:28.717Z,100.00
2022-10-05T05:36:07.870Z,100.00
2022-10-05T05:38:51.388Z,100.00
2022-10-05T05:41:36.866Z,100.00
2022-10-05T05:44:06.539Z,100.00
2022-10-05T05:47:02.329Z,100.00
2022-10-05T05:49:44.030Z,100.00
2022-10-05T05:52:18.324Z,100.00
2022-10-05T05:55:14.222Z,100.00
2022-10-05T05:57:44.464Z,100.00
2022-10-05T06:00:14.490Z,100.00
2022-10-05T06:03:09.560Z,100.00
2022-10-05T06:05:50.391Z,100.00
2022-10-05T06:08:35.948Z,100.00
2022-10-05T06:11:11.666Z,100.00
2022-10-05T06:13:42.760Z,100.00
2022-10-05T06:16:22.077Z,100.00
2022-10-05T06:19:03.867Z,100.00
2022-10-05T06:21:55.688Z,100.00
2022-10-05T06:24:34.472Z,100.00
2022-10-05T06:27:03.958Z,100.00
2022-10-05T06:30:04.787Z,100.00
2022-10-05T06:32:34.101Z,100.00
2022-10-05T06:35:18.352Z,100.00
2022-10-05T06:38:15.979Z,100.00
2022-10-05T06:40:55.267Z,100.00
2022-10-05T06:43:43.514Z,100.00
2022-10-05T06:46:42.790Z,100.00
2022-10-05T06:49:41.720Z,100.00
2022-10-05T06:52:36.173Z,100.00
2022-10-05T06:55:15.057Z,100.00
2022-10-05T06:57:59.925Z,100.00
2022-10-05T07:00:35.619Z,100.00
2022-10-05T07:03:12.149Z,100.00
2022-10-05T07:05:57.000Z,100.00
2022-10-05T07:08:35.773Z,100.00
2022-10-05T07:11:05.079Z,100.00
2022-10-05T07:14:01.852Z,100.00
2022-10-05T07:16:45.491Z,100.00
2022-10-05T07:19:41.306Z,100.00
2022-10-05T07:22:20.249Z,100.00
2022-10-05T07:25:00.443Z,100.00
2022-10-05T07:27:50.909Z,100.00
2022-10-05T07:30:19.273Z,100.00
2022-10-05T07:33:18.982Z,100.00
2022-10-05T07:36:22.823Z,100.00
2022-10-05T07:39:02.641Z,99.29
2022-10-05T07:41:52.983Z,98.88
2022-10-05T07:44:31.019Z,96.54
2022-10-05T07:47:19.425Z,94.94
2022-10-05T07:49:59.694Z,96.30
2022-10-05T07:52:35.588Z,95.24
2022-10-05T07:55:17.057Z,94.38
2022-10-05T07:57:55.891Z,91.67
2022-10-05T08:00:43.243Z,88.04
2022-10-05T08:03:18.833Z,87.94
2022-10-05T08:05:47.038Z,85.64
2022-10-05T08:08:32.896Z,85.64
2022-10-05T08:11:10.532Z,82.48
2022-10-05T08:13:53.303Z,82.49
2022-10-05T08:16:23.283Z,80.66
2022-10-05T08:18:50.061Z,78.70
2022-10-05T08:21:23.671Z,80.60
2022-10-05T08:23:59.272Z,79.23
2022-10-05T08:26:55.356Z,77.38
2022-10-05T08:29:47.380Z,76.87
2022-10-05T08:32:25.727Z,76.87
2022-10-05T08:35:02.104Z,75.91
2022-10-05T08:37:37.284Z,75.24
2022-10-05T08:40:45.866Z,73.46
2022-10-05T08:43:35.136Z,72.05
2022-10-05T08:46:14.193Z,72.42
2022-10-05T08:49:12.299Z,70.11
2022-10-05T08:51:51.244Z,69.83
2022-10-05T08:54:39.485Z,70.11
2022-10-05T08:57:18.571Z,69.38
2022-10-05T08:59:45.271Z,68.59
2022-10-05T09:02:37.146Z,68.67
2022-10-05T09:05:25.980Z,67.56
2022-10-05T09:08:04.698Z,65.92
2022-10-05T09:10:53.447Z,64.97
2022-10-05T09:13:33.569Z,65.95
2022-10-05T09:16:12.084Z,66.21
2022-10-05T09:18:50.998Z,66.22
2022-10-05T09:21:29.729Z,64.24
2022-10-05T09:24:16.679Z,64.37
2022-10-05T09:27:02.373Z,63.93
2022-10-05T09:30:06.388Z,63.25
2022-10-05T09:32:57.857Z,63.06
2022-10-05T09:35:58.118Z,62.57
2022-10-05T09:38:46.458Z,61.14
2022-10-05T09:41:51.759Z,59.40
2022-10-05T09:44:37.072Z,59.73
2022-10-05T09:47:28.557Z,58.78
2022-10-05T09:50:07.152Z,60.07
2022-10-05T09:53:09.607Z,58.89
2022-10-05T09:55:51.251Z,58.37
2022-10-05T09:58:50.378Z,59.70
2022-10-05T10:01:47.887Z,61.97
2022-10-05T10:04:34.806Z,60.02
2022-10-05T10:07:10.281Z,59.45
2022-10-05T10:10:01.515Z,58.80
2022-10-05T10:12:46.220Z,58.78
2022-10-05T10:15:50.415Z,57.13
2022-10-05T10:18:40.700Z,55.59
2022-10-05T10:21:33.722Z,55.01
2022-10-05T10:24:14.107Z,56.02
2022-10-05T10:26:43.808Z,55.01
2022-10-05T10:32:23.657Z,57.08
2022-10-05T10:35:01.667Z,56.67
2022-10-05T10:38:16.764Z,58.01
2022-10-05T10:41:14.111Z,59.70
2022-10-05T10:44:23.895Z,60.87
2022-10-05T10:47:21.068Z,61.72
2022-10-05T10:50:09.776Z,61.41
2022-10-05T10:53:14.886Z,59.89
2022-10-05T10:56:17.697Z,56.93
2022-10-05T10:58:59.393Z,57.99
2022-10-05T11:01:34.490Z,58.61
2022-10-05T11:04:22.975Z,58.63
2022-10-05T11:07:02.385Z,57.22
2022-10-05T11:10:00.716Z,56.66
2022-10-05T11:13:14.568Z,57.08
2022-10-05T11:15:47.739Z,56.62
2022-10-05T11:18:32.536Z,56.42
2022-10-05T11:21:36.581Z,56.44
2022-10-05T11:24:22.807Z,57.20
2022-10-05T11:27:08.383Z,56.25
2022-10-05T11:29:41.560Z,55.20
2022-10-05T11:32:27.655Z,55.32
2022-10-05T11:35:24.549Z,56.55
2022-10-05T11:38:11.476Z,56.60
2022-10-05T11:41:02.190Z,57.85
2022-10-05T11:43:53.070Z,57.45
2022-10-05T11:46:35.259Z,55.71
2022-10-05T11:49:25.950Z,56.90
2022-10-05T11:52:13.688Z,55.56
2022-10-05T11:55:09.112Z,54.27
2022-10-05T11:57:37.881Z,54.96
2022-10-05T12:00:12.148Z,54.45
2022-10-05T12:02:48.058Z,55.76
2022-10-05T12:05:22.845Z,56.42
2022-10-05T12:08:08.681Z,55.49
2022-10-05T12:10:41.313Z,55.82
2022-10-05T12:13:19.852Z,55.16
2022-10-05T12:16:04.671Z,56.97
2022-10-05T12:18:31.617Z,57.07
2022-10-05T12:21:23.568Z,56.60
2022-10-05T12:23:58.313Z,57.66
2022-10-05T12:26:34.100Z,57.16
2022-10-05T12:29:26.771Z,57.88
2022-10-05T12:31:56.489Z,58.65
2022-10-05T12:35:01.021Z,60.19
2022-10-05T12:37:53.566Z,60.20
2022-10-05T12:40:26.456Z,60.00
2022-10-05T12:43:20.922Z,59.35
2022-10-05T12:46:09.856Z,60.36
2022-10-05T12:48:58.189Z,60.03
2022-10-05T12:51:47.100Z,57.83
2022-10-05T12:54:24.763Z,57.43
2022-10-05T12:57:15.948Z,58.96
2022-10-05T12:59:54.073Z,59.84
2022-10-05T13:02:30.433Z,59.14
2022-10-05T13:05:14.123Z,60.04
2022-10-05T13:07:59.673Z,60.79
2022-10-05T13:10:41.991Z,60.62
2022-10-05T13:13:33.620Z,61.00
2022-10-05T13:16:28.357Z,60.39
2022-10-05T13:19:11.056Z,59.40
2022-10-05T13:21:47.610Z,59.48
2022-10-05T13:24:29.135Z,58.63
2022-10-05T13:27:08.530Z,58.66
2022-10-05T13:29:48.160Z,58.44
2022-10-05T13:32:27.307Z,57.25
2022-10-05T13:34:56.894Z,58.04
2022-10-05T13:37:29.365Z,58.21
2022-10-05T13:39:59.244Z,58.07
2022-10-05T13:42:48.433Z,57.56
2022-10-05T13:45:35.997Z,58.12
2022-10-05T13:48:24.543Z,58.08
2022-10-05T13:51:06.457Z,58.71
2022-10-05T13:54:10.833Z,58.74
2022-10-05T13:56:45.309Z,58.65
2022-10-05T13:59:17.801Z,58.37
2022-10-05T14:02:10.891Z,58.21
2022-10-05T14:04:49.628Z,58.02
2022-10-05T14:07:31.769Z,58.28
2022-10-05T14:10:02.055Z,58.89
2022-10-05T14:12:36.552Z,59.57
2022-10-05T14:15:20.339Z,59.24
2022-10-05T14:17:47.322Z,59.74
2022-10-05T14:20:21.749Z,59.78
2022-10-05T14:22:54.490Z,59.79
2022-10-05T14:25:21.602Z,60.08
2022-10-05T14:28:24.877Z,59.75
2022-10-05T14:31:26.631Z,59.74
2022-10-05T14:33:53.517Z,60.44
2022-10-05T14:36:40.119Z,59.62
2022-10-05T14:39:12.935Z,60.54
2022-10-05T14:41:49.167Z,60.29
2022-10-05T14:44:16.180Z,61.26
2022-10-05T14:47:11.932Z,61.00
2022-10-05T14:50:15.405Z,62.45
2022-10-05T14:53:11.572Z,61.02
2022-10-05T14:56:09.064Z,61.69
2022-10-05T14:58:56.278Z,61.73
2022-10-05T15:01:31.035Z,61.57
2022-10-05T15:04:13.179Z,61.87
2022-10-05T15:06:44.309Z,61.93
2022-10-05T15:09:35.812Z,62.47
2022-10-05T15:12:03.854Z,62.73
2022-10-05T15:14:34.848Z,62.53
2022-10-05T15:17:04.446Z,62.34
2022-10-05T15:19:50.442Z,61.02
2022-10-05T15:22:41.263Z,61.64
2022-10-05T15:25:28.154Z,62.10
2022-10-05T15:28:18.812Z,62.52
2022-10-05T15:31:01.324Z,62.97
2022-10-05T15:33:39.319Z,62.86
2022-10-05T15:36:06.405Z,63.11
2022-10-05T15:39:00.204Z,63.84
2022-10-05T15:41:35.738Z,63.45
2022-10-05T15:44:34.250Z,64.05
2022-10-05T15:47:13.908Z,64.10
2022-10-05T15:49:52.667Z,64.33
2022-10-05T15:52:25.476Z,64.80
2022-10-05T15:55:13.864Z,65.64
2022-10-05T15:57:59.654Z,65.53
2022-10-05T16:00:28.142Z,65.85
2022-10-05T16:03:19.808Z,66.29
2022-10-05T16:06:24.048Z,66.38
2022-10-05T16:09:03.401Z,67.57
2022-10-05T16:11:33.095Z,68.25
2022-10-05T16:14:08.465Z,69.18
2022-10-05T16:16:53.468Z,68.97
2022-10-05T16:19:42.455Z,71.07
2022-10-05T16:22:37.850Z,72.77
2022-10-05T16:25:25.143Z,71.87
2022-10-05T16:28:12.524Z,72.91
2022-10-05T16:31:02.722Z,72.33
2022-10-05T16:33:54.446Z,73.95
2022-10-05T16:36:44.469Z,73.87
2022-10-05T16:39:11.193Z,75.38
2022-10-05T16:41:48.001Z,72.73
2022-10-05T16:44:53.330Z,73.00
2022-10-05T16:47:58.069Z,73.66
2022-10-05T16:50:24.713Z,74.58
2022-10-05T16:53:15.265Z,74.10
2022-10-05T16:55:49.076Z,74.09
2022-10-05T16:58:23.829Z,75.15
2022-10-05T17:01:16.716Z,76.93
2022-10-05T17:04:03.717Z,77.68
2022-10-05T17:06:30.389Z,76.33
2022-10-05T17:09:17.696Z,78.32
2022-10-05T17:11:47.371Z,76.08
2022-10-05T17:14:36.292Z,77.37
2022-10-05T17:17:46.994Z,79.09
2022-10-05T17:21:00.996Z,77.61
2022-10-05T17:23:54.241Z,79.09
2022-10-05T17:26:45.164Z,77.47
2022-10-05T17:29:51.401Z,80.10
2022-10-05T17:32:18.307Z,80.63
2022-10-05T17:35:04.161Z,79.20
2022-10-05T17:37:54.035Z,81.66
2022-10-05T17:40:29.607Z,82.92
2022-10-05T17:43:04.622Z,81.55
2022-10-05T17:45:34.478Z,83.41
2022-10-05T17:48:01.390Z,83.68
2022-10-05T17:51:09.908Z,84.70
2022-10-05T17:54:04.331Z,83.49
2022-10-05T17:56:32.069Z,85.32
2022-10-05T17:59:02.213Z,84.93
2022-10-05T18:01:35.029Z,85.51
2022-10-05T18:04:13.897Z,86.87
2022-10-05T18:06:47.605Z,87.33
2022-10-05T18:09:17.461Z,87.37
2022-10-05T18:11:49.247Z,88.40
2022-10-05T18:14:24.895Z,89.02
2022-10-05T18:17:03.246Z,84.86
2022-10-05T18:19:32.459Z,87.40
2022-10-05T18:22:03.422Z,83.30
2022-10-05T18:24:53.049Z,87.87
2022-10-05T18:27:34.514Z,83.79
2022-10-05T18:30:14.378Z,84.20
2022-10-05T18:33:00.123Z,88.04
2022-10-05T18:35:42.913Z,88.42
2022-10-05T18:38:34.299Z,90.43
2022-10-05T18:41:17.357Z,91.17
2022-10-05T18:44:24.505Z,91.39
2022-10-05T18:47:12.473Z,91.97
2022-10-05T18:49:49.596Z,93.27
2022-10-05T18:52:50.204Z,94.31
2022-10-05T18:55:26.039Z,94.17
2022-10-05T18:58:21.074Z,94.93
2022-10-05T19:01:09.855Z,95.73
2022-10-05T19:03:39.408Z,97.75
2022-10-05T19:06:37.508Z,96.99
2022-10-05T19:09:13.205Z,98.33
2022-10-05T19:11:55.761Z,99.92
2022-10-05T19:14:45.822Z,99.66
2022-10-05T19:17:45.168Z,100.00
2022-10-05T19:20:23.765Z,100.00
2022-10-05T19:22:59.689Z,100.00
2022-10-05T19:25:29.462Z,100.00
2022-10-05T19:28:07.813Z,100.00
2022-10-05T19:30:55.585Z,100.00
2022-10-05T19:33:32.379Z,100.00
2022-10-05T19:36:02.084Z,100.00
2022-10-05T19:39:08.227Z,100.00
2022-10-05T19:41:47.953Z,100.00
2022-10-05T19:44:35.275Z,100.00
2022-10-05T19:47:14.893Z,100.00
2022-10-05T19:49:50.564Z,100.00
2022-10-05T19:52:31.158Z,100.00
2022-10-05T19:55:11.028Z,100.00
2022-10-05T19:57:49.206Z,100.00
2022-10-05T20:00:24.679Z,100.00
2022-10-05T20:03:07.708Z,100.00
2022-10-05T20:05:34.967Z,100.00
2022-10-05T20:08:01.710Z,100.00
2022-10-05T20:10:30.750Z,100.00
2022-10-05T20:13:02.996Z,100.00
2022-10-05T20:15:52.063Z,100.00
2022-10-05T20:19:03.114Z,100.00
2022-10-05T20:21:39.360Z,100.00
2022-10-05T20:24:13.653Z,100.00
2022-10-05T20:27:06.614Z,100.00
2022-10-05T20:29:39.207Z,100.00
2022-10-05T20:32:08.880Z,100.00
2022-10-05T20:34:37.643Z,100.00
2022-10-05T20:37:04.427Z,100.00
2022-10-05T20:39:31.539Z,100.00
2022-10-05T20:41:58.895Z,100.00
2022-10-05T20:44:26.706Z,100.00
2022-10-05T20:46:55.681Z,100.00
2022-10-05T20:49:24.512Z,100.00
2022-10-05T20:51:51.589Z,100.00
2022-10-05T20:54:19.037Z,100.00
2022-10-05T20:56:47.087Z,100.00
2022-10-05T20:59:14.526Z,100.00
2022-10-05T21:01:46.297Z,100.00
2022-10-05T21:04:41.007Z,100.00
2022-10-05T21:07:08.485Z,100.00
2022-10-05T21:09:38.338Z,100.00
2022-10-05T21:12:05.443Z,100.00
2022-10-05T21:14:34.486Z,100.00
2022-10-05T21:17:02.267Z,100.00
2022-10-05T21:19:29.942Z,100.00
2022-10-05T21:21:59.890Z,100.00
2022-10-05T21:24:26.897Z,100.00
2022-10-05T21:26:57.663Z,100.00
2022-10-05T21:29:24.453Z,100.00
2022-10-05T21:31:54.500Z,100.00
2022-10-05T21:34:21.291Z,100.00
2022-10-05T21:36:48.074Z,100.00
2022-10-05T21:39:15.026Z,100.00
2022-10-05T21:41:41.743Z,100.00
2022-10-05T21:44:08.510Z,100.00
2022-10-05T21:46:36.965Z,100.00
2022-10-05T21:49:08.530Z,100.00
2022-10-05T21:51:36.649Z,100.00
2022-10-05T21:54:09.141Z,100.00
2022-10-05T21:56:40.224Z,100.00
2022-10-05T21:59:10.051Z,100.00
2022-10-05T22:01:37.330Z,100.00
2022-10-05T22:04:05.452Z,100.00
2022-10-05T22:06:33.148Z,100.00
2022-10-05T22:09:00.200Z,100.00
2022-10-05T22:11:28.988Z,100.00
2022-10-05T22:14:02.141Z,100.00
2022-10-05T22:16:32.853Z,100.00
2022-10-05T22:19:05.075Z,100.00
2022-10-05T22:21:37.797Z,100.00
2022-10-05T22:24:04.869Z,100.00
2022-10-05T22:26:31.796Z,100.00
2022-10-05T22:28:58.850Z,100.00
2022-10-05T22:31:25.679Z,100.00
2022-10-05T22:33:52.535Z,100.00
2022-10-05T22:36:20.209Z,100.00
2022-10-05T22:38:47.698Z,100.00
2022-10-05T22:41:17.127Z,100.00
2022-10-05T22:43:45.465Z,100.00
2022-10-05T22:46:13.367Z,100.00
2022-10-05T22:48:40.832Z,100.00
2022-10-05T22:51:08.792Z,100.00
2022-10-05T22:53:35.725Z,100.00
2022-10-05T22:56:13.200Z,100.00
2022-10-05T22:58:44.245Z,100.00
2022-10-05T23:01:13.906Z,100.00
2022-10-05T23:03:41.619Z,100.00
2022-10-05T23:06:11.114Z,100.00
2022-10-05T23:08:39.049Z,100.00
2022-10-05T23:11:11.547Z,100.00
2022-10-05T23:13:38.748Z,100.00
2022-10-05T23:16:17.198Z,100.00
2022-10-05T23:18:44.852Z,100.00
2022-10-05T23:21:11.824Z,100.00
2022-10-05T23:23:40.907Z,100.00
2022-10-05T23:26:10.464Z,100.00
2022-10-05T23:28:39.993Z,100.00
2022-10-05T23:31:11.426Z,100.00
2022-10-05T23:33:38.366Z,100.00
2022-10-05T23:36:12.386Z,100.00
2022-10-05T23:38:39.488Z,100.00
2022-10-05T23:41:06.700Z,100.00
2022-10-05T23:43:33.822Z,100.00
2022-10-05T23:46:01.873Z,100.00
2022-10-05T23:48:29.725Z,100.00
2022-10-05T23:50:56.904Z,100.00
2022-10-05T23:53:24.144Z,100.00
2022-10-05T23:55:53.760Z,100.00
2022-10-05T23:58:21.628Z,100.00
